Route Details

Aircraft Information
Group: North America Fleet
Types: B738, B752, B762, B763
Route Data
Distance: 161nm
Duration: 1h 05m
Origin METAR: KLAL 160050Z 22005KT 10SM SKC 27/23 A2991
Dest. METAR: KMIA 160053Z 00000KT 10SM FEW025 BKN250 27/24 A2993 RMK AO2 SLP136 T02720244
Freight Data
(for Aug 16, 2022)
Load Factor:
28%
Manifested Cargo: 29,843lbs
Financial History
Total Freight: 247,219lbs
Average Load: 0lbs/flt
Fuel Used: 27,671lbs
Avg. Fuel Used: 0lbs/flt
Fuel Expense: $14,109
Avg. Fuel Expense: $0
Avg. Fuel Cost: $0/lbs
Total Gross Income: $608,159
Pilot Pay: $1,015
Total Expenses: $150,536
Total Revenue: $442,741
Average Revenue: $0

Capitol Logistics 497




KLAL
Lakeland Linder Regional Airport
Lakeland, Florida
KMIA
Miami International Airport
Miami, Florida

Activity Log

Date Flight Route Aircraft Duration
08/05/2022 CPX497 DCT CROWD DCT ROGAN DCT RSW DCT FROGZ FROGZ2 B738 0h 42m
08/04/2022 CPX497 DCT CROWD DCT ROGAN DCT RSW DCT FROGZ FROGZ2 B738 0h 43m
07/14/2022 CPX497 DCT CROWD DCT ROGAN DCT RSW DCT FROGZ FROGZ2 B752 0h 46m
07/11/2022 CPX497 CROWD HALLR B763 0h 47m
07/03/2022 CPX209 CROWD ROGAN RSW PALMZ2 B763 0h 39m